Time;durP1;ratioP1;P1;durP2;ratioP2;P2;SDS_P1;SDS_P2;PMS_P1;PMS_P2;Temp;Humidity;BMP_temperature;BMP_pressure;BME280_temperature;BME280_humidity;BME280_pressure;Samples;Min_cycle;Max_cycle;Signal;HPM_P1;HPM_P2
2021/12/17 00:00:32;;;;;;;70.82;20.90;;;7.60;99.90;;;;;;4920032;29;20082;-89
2021/12/17 00:05:54;;;;;;;63.67;20.38;;;7.60;99.90;;;;;;4933347;29;20101;-89
2021/12/17 00:08:22;;;;;;;48.92;16.95;;;7.60;99.90;;;;;;4935470;29;20464;-90
2021/12/17 00:10:51;;;;;;;34.88;13.65;;;7.60;99.90;;;;;;4937468;29;20043;-88
2021/12/17 00:13:18;;;;;;;31.23;15.20;;;7.50;99.90;;;;;;4949676;29;20058;-89
2021/12/17 00:15:44;;;;;;;41.30;17.00;;;7.60;99.90;;;;;;4950015;28;20043;-89
2021/12/17 00:18:17;;;;;;;45.33;16.80;;;7.80;99.90;;;;;;4905122;28;20042;-88
2021/12/17 00:53:41;;;;;;;47.08;16.63;;;7.60;99.90;;;;;;4839597;29;20161;-89
2021/12/17 00:56:07;;;;;;;51.63;18.23;;;7.60;99.90;;;;;;4824538;29;20138;-88
2021/12/17 00:58:33;;;;;;;43.47;16.25;;;8.00;99.90;;;;;;4884514;28;20394;-88
2021/12/17 01:01:00;;;;;;;46.50;16.45;;;7.60;99.90;;;;;;4935929;29;20043;-89
2021/12/17 01:03:25;;;;;;;41.65;15.82;;;7.60;99.90;;;;;;4935616;28;20050;-88
2021/12/17 01:05:51;;;;;;;43.35;17.02;;;7.90;99.90;;;;;;4934544;29;20058;-89
2021/12/17 01:08:17;;;;;;;54.35;17.48;;;7.60;99.90;;;;;;4918576;29;21105;-89
2021/12/17 01:10:51;;;;;;;47.85;17.33;;;7.60;99.90;;;;;;4919415;29;20046;-90
2021/12/17 01:13:17;;;;;;;47.50;16.58;;;7.60;99.90;;;;;;4932683;29;20042;-88
2021/12/17 01:15:43;;;;;;;53.55;19.33;;;7.50;99.90;;;;;;4932852;28;20094;-88
2021/12/17 01:18:14;;;;;;;53.72;18.67;;;7.50;99.90;;;;;;4916214;29;20114;-88
2021/12/17 01:24:01;;;;;;;51.28;16.58;;;7.60;99.90;;;;;;4950407;29;20138;-88
2021/12/17 01:38:09;;;;;;;49.92;14.65;;;7.60;99.90;;;;;;4896711;29;20121;-89
2021/12/17 01:43:04;;;;;;;44.03;15.02;;;7.60;99.90;;;;;;4956734;28;20054;-88
2021/12/17 01:45:36;;;;;;;46.42;14.30;;;7.60;99.90;;;;;;4921462;29;20039;-88
2021/12/17 01:48:05;;;;;;;38.75;14.38;;;7.60;99.90;;;;;;4956491;28;20526;-89
2021/12/17 02:01:37;;;;;;;40.05;14.38;;;7.60;99.90;;;;;;4926464;29;20182;-87
2021/12/17 02:04:06;;;;;;;47.47;14.60;;;7.60;99.90;;;;;;4920425;29;20105;-87
2021/12/17 02:06:35;;;;;;;47.10;14.52;;;7.60;99.90;;;;;;4956035;28;20050;-88
2021/12/17 02:09:02;;;;;;;43.83;14.05;;;7.60;99.90;;;;;;4923089;29;20464;-89
2021/12/17 02:20:38;;;;;;;56.03;16.67;;;7.60;99.90;;;;;;4930023;28;20146;-87
2021/12/17 02:28:47;;;;;;;51.10;15.48;;;7.70;99.90;;;;;;4957447;28;20043;-87
2021/12/17 02:31:26;;;;;;;50.05;13.95;;;7.60;99.90;;;;;;4924059;29;20095;-88
2021/12/17 02:33:55;;;;;;;47.15;13.88;;;8.40;99.90;;;;;;4913007;28;20038;-88
2021/12/17 02:36:25;;;;;;;49.03;13.98;;;7.60;99.90;;;;;;4955697;28;20039;-88
2021/12/17 02:38:54;;;;;;;46.90;14.98;;;7.60;99.90;;;;;;4940321;28;20034;-88
2021/12/17 02:46:48;;;;;;;44.20;15.25;;;7.60;99.90;;;;;;4941418;29;20074;-90
2021/12/17 02:49:14;;;;;;;51.58;14.85;;;7.50;99.90;;;;;;4939206;29;20035;-90
2021/12/17 02:51:42;;;;;;;51.75;14.57;;;7.60;99.90;;;;;;4922968;28;20134;-90
2021/12/17 02:54:08;;;;;;;51.22;15.00;;;7.60;99.90;;;;;;4934770;28;20639;-90
2021/12/17 02:56:34;;;;;;;43.00;14.15;;;7.50;99.90;;;;;;4923775;29;20042;-89
2021/12/17 02:59:02;;;;;;;45.95;14.45;;;7.60;99.90;;;;;;4936297;29;20046;-89
2021/12/17 03:01:28;;;;;;;46.55;14.63;;;7.70;99.90;;;;;;4938618;28;20031;-89
2021/12/17 03:03:55;;;;;;;46.58;15.05;;;7.60;99.90;;;;;;4919592;29;20043;-90
2021/12/17 03:06:21;;;;;;;57.90;16.63;;;7.60;99.90;;;;;;4920722;28;20043;-89
2021/12/17 03:08:47;;;;;;;54.88;15.85;;;7.60;99.90;;;;;;4917769;29;20504;-89
2021/12/17 03:11:14;;;;;;;44.97;15.55;;;7.80;99.90;;;;;;4919650;29;20035;-89
2021/12/17 03:13:43;;;;;;;59.80;17.15;;;7.60;99.90;;;;;;4938943;29;20079;-89
2021/12/17 03:18:58;;;;;;;54.92;15.15;;;7.60;99.90;;;;;;4920298;29;20130;-89
2021/12/17 03:24:08;;;;;;;47.63;15.32;;;7.80;99.90;;;;;;4953788;28;20108;-90
2021/12/17 03:26:35;;;;;;;53.38;15.48;;;7.60;99.90;;;;;;4955539;28;20101;-89
2021/12/17 03:29:06;;;;;;;55.17;15.45;;;7.60;99.90;;;;;;4940303;28;20042;-90
2021/12/17 03:31:33;;;;;;;52.83;15.25;;;7.50;99.90;;;;;;4939623;28;20039;-90
2021/12/17 03:34:19;;;;;;;44.78;15.52;;;7.80;99.90;;;;;;4938602;28;20057;-89
2021/12/17 03:36:57;;;;;;;54.10;16.48;;;7.80;99.90;;;;;;4926075;28;20090;-89
2021/12/17 03:39:25;;;;;;;50.42;16.05;;;7.50;99.90;;;;;;4937346;28;20031;-90
2021/12/17 03:41:52;;;;;;;48.00;16.23;;;7.60;99.90;;;;;;4937851;28;20088;-89
2021/12/17 03:44:19;;;;;;;59.47;16.00;;;7.50;99.90;;;;;;4926826;28;20098;-90
2021/12/17 03:46:46;;;;;;;51.97;15.30;;;7.60;99.90;;;;;;4921050;28;20113;-89
2021/12/17 03:49:14;;;;;;;66.53;16.67;;;7.50;99.90;;;;;;4937854;28;20098;-89
2021/12/17 03:52:04;;;;;;;54.85;16.50;;;7.60;99.90;;;;;;4938299;28;20043;-89
2021/12/17 03:54:31;;;;;;;54.08;16.48;;;7.50;99.90;;;;;;4925177;28;20090;-89
2021/12/17 03:56:57;;;;;;;64.05;17.10;;;7.60;99.90;;;;;;4950646;28;20043;-89
2021/12/17 03:59:23;;;;;;;76.65;18.45;;;7.60;99.90;;;;;;4932497;28;20049;-89
2021/12/17 04:01:49;;;;;;;64.63;16.35;;;7.50;99.90;;;;;;4905956;28;20656;-89
2021/12/17 04:04:15;;;;;;;53.70;15.90;;;7.50;99.90;;;;;;4922028;28;20042;-89
2021/12/17 04:06:40;;;;;;;74.68;16.52;;;7.50;99.90;;;;;;4937060;28;20047;-89
2021/12/17 04:09:08;;;;;;;57.80;16.02;;;7.50;99.90;;;;;;4936774;28;21724;-89
2021/12/17 04:11:33;;;;;;;69.50;17.65;;;7.50;99.90;;;;;;4923044;28;20034;-89
2021/12/17 04:14:00;;;;;;;60.20;16.75;;;7.50;99.90;;;;;;4920822;28;20528;-88
2021/12/17 04:16:29;;;;;;;61.45;16.55;;;7.50;99.90;;;;;;4920791;28;20035;-89
2021/12/17 04:18:57;;;;;;;51.70;16.40;;;7.50;99.90;;;;;;4937314;28;20050;-89
2021/12/17 04:21:24;;;;;;;46.90;16.58;;;7.60;99.90;;;;;;4937419;28;20035;-89
2021/12/17 04:23:52;;;;;;;50.58;15.80;;;7.40;99.90;;;;;;4938086;28;20114;-89
2021/12/17 04:26:18;;;;;;;68.07;17.13;;;7.40;99.90;;;;;;4952223;28;20038;-89
2021/12/17 04:28:48;;;;;;;68.97;18.50;;;7.40;99.90;;;;;;4937457;28;20074;-88
2021/12/17 04:31:15;;;;;;;52.72;16.15;;;7.40;99.90;;;;;;4937054;28;20042;-89
2021/12/17 04:33:42;;;;;;;56.40;17.13;;;7.40;99.90;;;;;;4937227;28;20042;-89
2021/12/17 04:36:11;;;;;;;55.30;16.88;;;7.40;99.90;;;;;;4936171;28;20097;-90
2021/12/17 04:38:37;;;;;;;66.18;18.75;;;7.40;99.90;;;;;;4937932;28;20071;-89
2021/12/17 04:46:30;;;;;;;57.25;17.45;;;7.40;99.90;;;;;;4937587;28;20039;-89
2021/12/17 04:57:43;;;;;;;49.35;15.57;;;7.40;99.90;;;;;;4952198;28;20122;-89
2021/12/17 05:00:11;;;;;;;48.53;17.03;;;7.50;99.90;;;;;;4940888;28;20540;-89
2021/12/17 05:02:42;;;;;;;50.05;15.27;;;7.40;99.90;;;;;;4953182;28;20286;-89
2021/12/17 05:05:10;;;;;;;46.03;13.88;;;7.90;99.90;;;;;;4937191;28;20103;-89
2021/12/17 05:07:40;;;;;;;57.95;15.82;;;7.40;99.90;;;;;;4938571;28;20121;-88
2021/12/17 05:20:50;;;;;;;31.63;11.23;;;7.40;99.90;;;;;;4952286;28;20042;-88
2021/12/17 05:23:28;;;;;;;35.60;11.50;;;7.40;99.90;;;;;;4936827;28;20469;-88
2021/12/17 05:25:54;;;;;;;33.63;11.93;;;7.40;99.90;;;;;;4936403;28;20042;-89
2021/12/17 05:28:20;;;;;;;34.58;10.77;;;7.40;99.90;;;;;;4937037;28;20034;-89
2021/12/17 05:30:48;;;;;;;42.92;12.25;;;7.40;99.90;;;;;;4952937;28;20050;-89
2021/12/17 05:33:18;;;;;;;42.65;12.15;;;7.40;99.90;;;;;;4949793;28;20066;-89
2021/12/17 05:35:46;;;;;;;42.25;12.05;;;7.40;99.90;;;;;;4951527;28;20082;-89
2021/12/17 05:38:13;;;;;;;38.67;10.90;;;7.40;99.90;;;;;;4919633;28;20035;-88
2021/12/17 05:40:40;;;;;;;34.35;10.80;;;7.40;99.90;;;;;;4935752;28;20123;-89
2021/12/17 05:43:06;;;;;;;36.00;11.30;;;7.40;99.90;;;;;;4918537;28;20030;-89
2021/12/17 05:45:48;;;;;;;32.67;11.00;;;7.40;99.90;;;;;;4935847;28;20043;-89
2021/12/17 05:48:17;;;;;;;35.03;11.95;;;7.40;99.90;;;;;;4936582;28;20135;-89
2021/12/17 05:50:45;;;;;;;31.00;10.70;;;7.40;99.90;;;;;;4936189;28;20515;-88
2021/12/17 05:53:11;;;;;;;31.70;10.90;;;7.40;99.90;;;;;;4919836;28;20086;-89
2021/12/17 05:55:38;;;;;;;31.52;11.50;;;7.40;99.90;;;;;;4935626;28;20054;-89
2021/12/17 05:58:05;;;;;;;35.30;11.20;;;7.40;99.90;;;;;;4952376;28;20030;-90
2021/12/17 06:00:31;;;;;;;41.08;12.60;;;7.40;99.90;;;;;;4933750;28;20039;-88
2021/12/17 06:02:59;;;;;;;33.45;10.82;;;7.40;99.90;;;;;;4936092;28;20039;-88
2021/12/17 06:05:26;;;;;;;37.90;11.85;;;7.30;99.90;;;;;;4951263;28;20043;-89
2021/12/17 06:07:52;;;;;;;35.70;11.27;;;7.40;99.90;;;;;;4950249;28;20145;-89
2021/12/17 06:10:18;;;;;;;37.10;12.32;;;7.40;99.90;;;;;;4934093;28;20065;-89
2021/12/17 06:12:44;;;;;;;42.33;13.27;;;7.40;99.90;;;;;;4921566;28;20657;-88
2021/12/17 06:15:12;;;;;;;50.10;14.10;;;8.00;99.90;;;;;;4951224;28;20046;-89
2021/12/17 06:17:38;;;;;;;35.47;12.95;;;7.50;99.90;;;;;;4917369;28;20039;-89
2021/12/17 06:20:07;;;;;;;46.10;13.68;;;7.30;99.90;;;;;;4935553;28;20058;-88
2021/12/17 06:22:32;;;;;;;51.50;14.43;;;7.30;99.90;;;;;;4936310;28;20070;-88
2021/12/17 06:24:58;;;;;;;39.25;13.68;;;7.30;99.90;;;;;;4908172;28;20077;-88
2021/12/17 06:27:25;;;;;;;39.45;11.75;;;7.30;99.90;;;;;;4923585;28;20109;-89
2021/12/17 06:29:51;;;;;;;29.90;10.98;;;7.20;99.90;;;;;;4939798;28;20126;-89
2021/12/17 06:32:18;;;;;;;34.13;11.10;;;8.10;99.90;;;;;;4954753;28;20484;-89
2021/12/17 06:34:44;;;;;;;31.70;11.60;;;7.30;99.90;;;;;;4940440;28;20488;-88
2021/12/17 06:37:10;;;;;;;34.40;11.63;;;7.30;99.90;;;;;;4955052;28;20088;-88
2021/12/17 06:39:36;;;;;;;35.10;11.45;;;7.30;99.90;;;;;;4939016;28;20033;-88
2021/12/17 06:42:02;;;;;;;37.38;11.50;;;7.30;99.90;;;;;;4923441;28;20408;-89
2021/12/17 06:44:28;;;;;;;35.88;11.43;;;7.30;99.90;;;;;;4937989;28;20039;-88
2021/12/17 06:47:07;;;;;;;31.23;11.15;;;7.30;99.90;;;;;;4939241;28;20046;-88
2021/12/17 06:55:03;;;;;;;37.40;11.13;;;7.20;99.90;;;;;;4954095;28;20382;-88
2021/12/17 07:21:27;;;;;;;21.80;8.38;;;7.30;99.90;;;;;;4954422;28;20082;-88
2021/12/17 07:24:04;;;;;;;23.45;9.15;;;7.30;99.90;;;;;;4942186;28;20520;-88
2021/12/17 07:31:15;;;;;;;25.33;9.70;;;7.30;99.90;;;;;;4956383;28;20687;-88
2021/12/17 07:32:38;;;;;;;24.45;9.23;;;7.60;99.90;;;;;;4953773;28;20039;-89
2021/12/17 07:40:10;;;;;;;27.13;11.68;;;7.30;99.90;;;;;;4953092;28;20131;-89
2021/12/17 07:42:36;;;;;;;27.05;10.95;;;7.30;99.90;;;;;;4937883;28;20031;-89
2021/12/17 07:45:04;;;;;;;24.08;9.88;;;7.30;99.90;;;;;;4952793;28;20031;-89
2021/12/17 07:47:30;;;;;;;23.48;10.38;;;7.30;99.90;;;;;;4937500;28;20583;-88
2021/12/17 07:49:56;;;;;;;25.60;10.80;;;7.30;99.90;;;;;;4938015;28;20053;-89
2021/12/17 07:52:22;;;;;;;25.60;11.13;;;7.30;99.90;;;;;;4920700;28;20522;-88
2021/12/17 07:54:48;;;;;;;34.33;12.63;;;7.30;99.90;;;;;;4938362;28;20142;-89
2021/12/17 07:57:13;;;;;;;29.85;11.38;;;7.30;99.90;;;;;;4921620;28;20041;-89
2021/12/17 07:59:40;;;;;;;31.00;11.60;;;7.30;99.90;;;;;;4906523;28;20070;-88
2021/12/17 08:02:06;;;;;;;30.98;11.23;;;7.30;99.90;;;;;;4936753;28;20042;-89
2021/12/17 08:04:33;;;;;;;29.58;11.30;;;7.30;99.90;;;;;;4920584;28;20049;-88
2021/12/17 08:06:59;;;;;;;24.25;10.73;;;7.30;99.90;;;;;;4937080;28;20062;-89
2021/12/17 08:09:25;;;;;;;33.25;11.77;;;7.40;99.90;;;;;;4920838;28;20535;-88
2021/12/17 08:11:56;;;;;;;28.98;11.18;;;7.30;99.90;;;;;;4921283;28;20071;-89
2021/12/17 08:14:23;;;;;;;34.00;11.77;;;7.60;99.90;;;;;;4937780;28;20050;-88
2021/12/17 08:27:29;;;;;;;28.02;12.07;;;7.40;99.90;;;;;;4937859;28;20050;-89
2021/12/17 08:32:53;;;;;;;27.13;10.85;;;7.40;99.90;;;;;;4915070;28;20054;-89
2021/12/17 08:35:19;;;;;;;26.58;11.27;;;7.40;99.90;;;;;;4952618;28;20051;-89
2021/12/17 08:37:45;;;;;;;30.73;11.85;;;7.40;99.90;;;;;;4914072;28;20046;-89
2021/12/17 08:40:11;;;;;;;29.25;11.43;;;7.40;99.90;;;;;;4937778;28;20035;-89
2021/12/17 08:42:37;;;;;;;25.80;11.07;;;7.50;99.90;;;;;;4954240;28;20030;-89
2021/12/17 08:45:08;;;;;;;25.02;11.15;;;7.50;99.90;;;;;;4921504;28;20086;-89
2021/12/17 08:47:36;;;;;;;23.20;10.07;;;7.50;99.90;;;;;;4933492;28;20043;-89
2021/12/17 08:50:06;;;;;;;23.95;10.95;;;7.50;99.90;;;;;;4937922;28;20038;-90
2021/12/17 08:52:33;;;;;;;23.55;10.75;;;7.50;99.90;;;;;;4935564;28;20030;-89
2021/12/17 08:54:59;;;;;;;23.33;11.10;;;7.50;99.90;;;;;;4960821;28;20412;-90
2021/12/17 08:57:24;;;;;;;23.48;10.38;;;8.00;99.90;;;;;;4921046;28;20035;-89
2021/12/17 08:59:50;;;;;;;19.85;9.60;;;7.70;99.90;;;;;;4936984;28;20117;-88
2021/12/17 09:02:16;;;;;;;24.30;10.27;;;7.60;99.90;;;;;;4905506;28;20035;-87
2021/12/17 09:04:41;;;;;;;22.10;9.57;;;7.70;99.90;;;;;;4946629;28;20121;-91
2021/12/17 09:07:07;;;;;;;20.83;9.98;;;7.60;99.90;;;;;;4935181;28;20517;-86
2021/12/17 09:09:33;;;;;;;21.05;10.60;;;7.70;99.90;;;;;;4920842;28;20175;-86
2021/12/17 09:11:59;;;;;;;24.27;10.57;;;7.70;99.90;;;;;;4935367;28;20042;-86
2021/12/17 09:14:25;;;;;;;28.25;12.15;;;7.80;99.90;;;;;;4912719;28;20053;-86
2021/12/17 09:16:51;;;;;;;32.08;14.02;;;7.70;99.90;;;;;;4917793;28;20039;-86
2021/12/17 09:19:17;;;;;;;25.40;12.00;;;7.70;99.90;;;;;;4934240;28;20082;-86
2021/12/17 09:21:43;;;;;;;25.42;12.27;;;7.70;99.90;;;;;;4952912;28;20046;-91
2021/12/17 09:24:10;;;;;;;29.67;11.77;;;7.70;99.90;;;;;;4936574;28;20053;-90
2021/12/17 09:26:35;;;;;;;28.50;12.32;;;7.80;99.90;;;;;;4924833;28;20056;-89
2021/12/17 09:29:02;;;;;;;33.78;12.38;;;7.80;99.90;;;;;;4935976;28;20488;-88
2021/12/17 09:31:28;;;;;;;29.83;12.35;;;7.80;99.90;;;;;;4929022;28;20039;-89
2021/12/17 09:33:53;;;;;;;25.75;12.02;;;7.80;99.90;;;;;;4927372;28;20054;-87
2021/12/17 09:36:20;;;;;;;27.95;13.55;;;7.80;99.90;;;;;;4918067;28;20556;-88
2021/12/17 09:38:49;;;;;;;27.95;11.70;;;7.80;99.90;;;;;;4936120;28;20076;-88
2021/12/17 09:41:23;;;;;;;24.83;11.65;;;7.90;99.90;;;;;;4935669;28;20062;-88
2021/12/17 09:43:49;;;;;;;29.42;11.65;;;7.90;99.90;;;;;;4944861;28;20039;-88
2021/12/17 09:46:15;;;;;;;28.40;11.25;;;7.90;99.90;;;;;;4950957;28;20039;-88
2021/12/17 09:48:44;;;;;;;26.70;12.15;;;8.10;99.90;;;;;;4935620;28;20042;-89
2021/12/17 09:51:09;;;;;;;22.08;10.90;;;7.90;99.90;;;;;;4952235;28;20047;-89
2021/12/17 09:53:36;;;;;;;28.33;12.07;;;7.90;99.90;;;;;;4932479;28;20050;-89
2021/12/17 09:56:03;;;;;;;23.58;11.77;;;7.90;99.90;;;;;;4955222;28;20141;-88
2021/12/17 09:58:29;;;;;;;28.33;12.50;;;7.90;99.90;;;;;;4918512;28;20031;-89
2021/12/17 10:00:55;;;;;;;26.05;12.15;;;7.90;99.90;;;;;;4936146;28;20046;-89
2021/12/17 10:03:21;;;;;;;23.50;11.32;;;7.90;99.90;;;;;;4939367;28;20070;-89
2021/12/17 10:05:47;;;;;;;26.98;12.60;;;8.00;99.90;;;;;;4940637;28;20082;-89
2021/12/17 10:08:19;;;;;;;24.35;12.23;;;8.00;99.90;;;;;;4951405;28;20057;-87
2021/12/17 10:11:04;;;;;;;28.30;13.38;;;8.00;99.90;;;;;;4937445;28;20158;-89
2021/12/17 10:13:32;;;;;;;28.65;13.25;;;8.10;99.90;;;;;;4914329;28;20038;-88
2021/12/17 10:16:01;;;;;;;25.30;12.10;;;8.10;99.90;;;;;;4930028;28;20445;-89
2021/12/17 10:18:31;;;;;;;33.17;13.00;;;8.10;99.90;;;;;;4931387;28;20039;-90
2021/12/17 10:21:04;;;;;;;30.08;12.32;;;8.10;99.90;;;;;;4930340;28;20059;-91
2021/12/17 10:23:30;;;;;;;23.92;11.45;;;8.00;99.90;;;;;;4931468;28;20067;-87
2021/12/17 10:25:57;;;;;;;29.92;12.32;;;8.10;99.90;;;;;;4914613;28;20034;-87
2021/12/17 10:28:24;;;;;;;29.08;12.55;;;8.10;99.90;;;;;;4894961;28;20470;-86
2021/12/17 10:30:51;;;;;;;26.17;12.95;;;8.20;99.90;;;;;;4929402;28;20081;-87
2021/12/17 10:33:19;;;;;;;25.10;11.30;;;8.20;99.90;;;;;;4915588;28;20050;-86
2021/12/17 10:35:50;;;;;;;24.08;12.05;;;8.20;99.90;;;;;;4928495;28;20051;-87
2021/12/17 10:38:19;;;;;;;24.58;12.75;;;8.20;99.90;;;;;;4929868;28;20039;-89
2021/12/17 10:41:00;;;;;;;26.33;12.82;;;8.20;99.90;;;;;;4930182;28;20053;-89
2021/12/17 10:46:04;;;;;;;24.48;12.23;;;8.70;99.90;;;;;;4952333;28;20416;-94
2021/12/17 10:48:50;;;;;;;26.80;11.35;;;8.30;99.90;;;;;;4941672;28;20125;-93
2021/12/17 10:51:42;;;;;;;22.52;11.48;;;8.40;99.90;;;;;;4949643;28;20046;-94
2021/12/17 10:54:21;;;;;;;21.97;10.97;;;8.40;99.90;;;;;;4945292;28;20514;-93
2021/12/17 10:56:49;;;;;;;27.52;12.13;;;8.40;99.90;;;;;;4948872;28;20041;-94
2021/12/17 10:59:18;;;;;;;22.63;10.95;;;8.40;99.90;;;;;;4957649;28;20631;-93
2021/12/17 11:02:10;;;;;;;20.95;11.00;;;8.40;99.90;;;;;;4937383;28;20039;-94
2021/12/17 11:04:41;;;;;;;20.65;11.10;;;8.40;99.90;;;;;;4957898;28;20031;-92
2021/12/17 11:07:17;;;;;;;20.03;11.90;;;8.50;99.90;;;;;;4944708;28;20040;-93
2021/12/17 11:09:55;;;;;;;19.05;11.45;;;8.40;99.90;;;;;;4961069;28;20289;-94
2021/12/17 11:12:38;;;;;;;19.83;11.30;;;8.40;99.90;;;;;;4957815;28;20034;-94
2021/12/17 11:15:21;;;;;;;16.92;10.82;;;8.50;99.90;;;;;;4959733;28;20133;-93
2021/12/17 11:18:07;;;;;;;20.95;11.02;;;8.50;99.90;;;;;;4945579;28;20117;-94
2021/12/17 11:20:32;;;;;;;24.10;11.50;;;8.50;99.90;;;;;;4939084;29;20043;-95
2021/12/17 11:23:04;;;;;;;22.25;11.48;;;9.00;99.90;;;;;;4938956;28;20518;-93
2021/12/17 11:25:30;;;;;;;20.70;11.45;;;8.50;99.90;;;;;;4939471;28;20066;-93
2021/12/17 11:27:56;;;;;;;20.63;12.18;;;8.50;99.90;;;;;;4933991;28;20117;-93
2021/12/17 11:30:25;;;;;;;23.60;10.82;;;8.50;99.90;;;;;;4950404;28;20050;-94
2021/12/17 11:32:52;;;;;;;21.27;12.00;;;9.20;99.90;;;;;;4942704;28;20403;-93
2021/12/17 11:35:21;;;;;;;20.92;11.75;;;8.50;99.90;;;;;;4956467;28;20043;-94
2021/12/17 11:37:49;;;;;;;23.92;11.95;;;8.60;99.90;;;;;;4935628;29;20038;-96
2021/12/17 11:40:32;;;;;;;21.75;11.70;;;8.60;99.90;;;;;;4947594;28;20122;-94
2021/12/17 11:43:20;;;;;;;19.95;12.60;;;8.70;99.90;;;;;;4936927;29;20053;-95
2021/12/17 11:46:00;;;;;;;28.58;13.18;;;8.70;99.90;;;;;;4950501;28;20503;-93
2021/12/17 11:48:29;;;;;;;22.83;12.38;;;8.70;99.90;;;;;;4941215;29;20067;-93
2021/12/17 11:51:12;;;;;;;29.95;13.40;;;8.00;99.90;;;;;;4930186;28;20148;-93
2021/12/17 11:54:14;;;;;;;21.63;12.52;;;8.70;99.90;;;;;;4937517;28;20043;-94
2021/12/17 11:56:52;;;;;;;20.95;12.40;;;8.70;99.90;;;;;;4955028;28;20055;-93
2021/12/17 11:59:28;;;;;;;25.92;12.70;;;8.80;99.90;;;;;;4926971;28;20508;-93
2021/12/17 12:02:14;;;;;;;29.77;12.73;;;8.70;99.90;;;;;;4956875;28;20054;-94
2021/12/17 12:04:49;;;;;;;23.10;11.95;;;8.70;99.90;;;;;;4921979;29;20035;-95
2021/12/17 12:07:16;;;;;;;24.17;12.25;;;8.70;99.90;;;;;;4952755;28;20039;-92
2021/12/17 12:09:57;;;;;;;21.15;11.90;;;8.70;99.90;;;;;;4951712;28;20464;-92
2021/12/17 12:12:29;;;;;;;23.85;12.52;;;8.70;99.90;;;;;;4922827;29;20039;-90
2021/12/17 12:15:16;;;;;;;21.77;12.50;;;8.70;99.90;;;;;;4928552;29;20043;-92
2021/12/17 12:18:02;;;;;;;23.45;12.52;;;8.70;99.90;;;;;;4934168;29;20047;-93
2021/12/17 12:20:50;;;;;;;22.98;11.80;;;8.70;99.90;;;;;;4931887;29;20075;-91
2021/12/17 12:23:22;;;;;;;27.92;12.95;;;8.70;99.90;;;;;;4921905;29;20130;-92
2021/12/17 12:28:49;;;;;;;27.50;12.70;;;8.70;99.90;;;;;;4945801;29;19942;-92
2021/12/17 12:31:24;;;;;;;30.15;14.90;;;8.80;99.90;;;;;;4933688;29;20042;-93
2021/12/17 12:34:10;;;;;;;30.48;13.02;;;8.80;99.90;;;;;;4944931;28;20414;-93
2021/12/17 12:36:54;;;;;;;29.40;13.13;;;8.80;99.90;;;;;;4950871;29;20047;-95
2021/12/17 12:39:38;;;;;;;24.40;13.07;;;8.80;99.90;;;;;;4935961;29;20600;-93
2021/12/17 12:42:22;;;;;;;23.90;12.88;;;8.80;99.90;;;;;;4933490;28;20034;-93
2021/12/17 12:44:48;;;;;;;24.30;12.25;;;8.80;99.90;;;;;;4969838;28;20043;-94
2021/12/17 12:47:26;;;;;;;28.67;12.93;;;8.90;99.90;;;;;;4955357;28;20496;-93
2021/12/17 12:50:06;;;;;;;25.30;11.73;;;8.80;99.90;;;;;;4967772;28;20054;-92
2021/12/17 12:52:32;;;;;;;21.90;11.75;;;8.80;99.90;;;;;;4950672;28;20048;-92
2021/12/17 12:55:32;;;;;;;21.70;11.05;;;8.90;99.90;;;;;;4948745;28;20094;-93
2021/12/17 12:58:17;;;;;;;18.25;10.57;;;8.80;99.90;;;;;;4931123;28;20124;-93
2021/12/17 13:00:56;;;;;;;20.17;10.40;;;8.90;99.90;;;;;;4959814;28;20043;-93
2021/12/17 13:03:37;;;;;;;22.52;10.32;;;9.10;99.90;;;;;;4926507;29;20055;-94
2021/12/17 13:06:03;;;;;;;21.90;9.38;;;8.80;99.90;;;;;;4950976;28;20031;-95
2021/12/17 13:08:31;;;;;;;18.20;9.70;;;8.80;99.90;;;;;;4941285;28;20043;-94
2021/12/17 13:11:03;;;;;;;22.25;10.20;;;8.80;99.90;;;;;;4954954;28;20039;-93
2021/12/17 13:13:53;;;;;;;20.33;10.53;;;8.80;99.90;;;;;;4940466;29;20035;-93
2021/12/17 13:22:30;;;;;;;20.55;10.25;;;8.90;99.90;;;;;;4948149;28;20050;-93
2021/12/17 13:24:36;;;;;;;20.55;11.43;;;8.80;99.90;;;;;;4957684;28;20066;-92
2021/12/17 13:27:11;;;;;;;18.15;10.30;;;8.80;99.90;;;;;;4928550;28;20042;-93
2021/12/17 13:29:43;;;;;;;16.10;9.43;;;8.80;99.90;;;;;;4924953;29;20043;-92
2021/12/17 13:32:11;;;;;;;17.55;9.90;;;8.80;99.90;;;;;;4945943;28;20049;-93
2021/12/17 13:34:42;;;;;;;17.83;10.15;;;8.80;99.90;;;;;;4916923;28;20565;-93
2021/12/17 13:37:11;;;;;;;18.77;9.95;;;8.70;99.90;;;;;;4947773;28;20040;-92
2021/12/17 13:39:44;;;;;;;18.65;9.70;;;8.80;99.90;;;;;;4947090;28;20069;-92
2021/12/17 13:42:22;;;;;;;15.50;8.93;;;8.70;99.90;;;;;;4946043;28;20043;-92
2021/12/17 13:44:51;;;;;;;13.73;9.25;;;8.70;99.90;;;;;;4921115;29;20043;-92
2021/12/17 13:47:31;;;;;;;14.15;9.50;;;8.80;99.90;;;;;;4943583;28;20085;-92
2021/12/17 13:50:04;;;;;;;16.50;8.68;;;8.70;99.90;;;;;;4928048;28;20042;-93
2021/12/17 13:52:32;;;;;;;13.88;8.82;;;8.80;99.90;;;;;;4925343;29;20081;-91
2021/12/17 13:55:00;;;;;;;17.20;9.02;;;8.80;99.90;;;;;;4943222;28;20051;-93
2021/12/17 13:57:31;;;;;;;13.32;7.60;;;8.80;99.90;;;;;;4934845;29;20505;-92
2021/12/17 14:00:08;;;;;;;9.55;6.40;;;8.80;99.90;;;;;;4940240;28;20125;-92
2021/12/17 14:02:36;;;;;;;9.23;6.00;;;8.80;99.90;;;;;;4938927;28;20478;-92
2021/12/17 14:05:11;;;;;;;7.43;5.13;;;8.80;99.90;;;;;;4926230;28;20043;-91
2021/12/17 14:07:38;;;;;;;8.55;5.05;;;8.80;99.90;;;;;;4936371;28;20102;-91
2021/12/17 14:10:30;;;;;;;7.05;4.18;;;8.80;99.90;;;;;;4916840;28;20051;-91
2021/12/17 14:12:56;;;;;;;5.60;3.90;;;8.90;99.90;;;;;;4933927;28;20487;-92
2021/12/17 14:15:27;;;;;;;6.72;4.70;;;8.80;99.90;;;;;;4915943;28;20035;-91
2021/12/17 14:17:59;;;;;;;6.15;4.10;;;8.70;99.90;;;;;;4920690;28;20066;-91
2021/12/17 14:20:28;;;;;;;4.70;3.47;;;8.70;99.90;;;;;;4939604;28;20397;-92
2021/12/17 14:22:56;;;;;;;4.82;3.45;;;8.80;99.90;;;;;;4935100;28;20493;-91
2021/12/17 14:26:03;;;;;;;5.63;3.20;;;8.90;99.90;;;;;;4919221;28;20129;-92
2021/12/17 14:28:36;;;;;;;4.60;3.25;;;8.70;99.90;;;;;;4882477;29;20573;-91
2021/12/17 14:31:12;;;;;;;5.70;3.08;;;8.70;99.90;;;;;;4907454;28;20046;-91
2021/12/17 14:33:41;;;;;;;4.82;2.75;;;8.60;99.90;;;;;;4944381;28;20113;-91
2021/12/17 14:36:11;;;;;;;7.32;3.13;;;8.90;99.90;;;;;;4936312;28;20035;-91
2021/12/17 14:38:58;;;;;;;8.80;3.35;;;8.60;99.90;;;;;;4927131;28;20039;-92
2021/12/17 14:41:33;;;;;;;5.88;3.50;;;8.60;99.90;;;;;;4922293;28;20086;-92
2021/12/17 14:44:12;;;;;;;6.03;3.67;;;8.60;99.90;;;;;;4939131;28;20051;-91
2021/12/17 14:47:01;;;;;;;4.78;3.47;;;8.60;99.90;;;;;;4936781;28;20130;-91
2021/12/17 15:03:19;;;;;;;4.80;3.65;;;8.50;99.90;;;;;;4959845;28;20539;-89
2021/12/17 15:05:46;;;;;;;5.20;3.90;;;8.50;99.90;;;;;;4960369;28;20494;-91
2021/12/17 15:08:11;;;;;;;5.63;3.70;;;8.50;99.90;;;;;;4920755;28;20035;-90
2021/12/17 15:10:37;;;;;;;6.00;3.17;;;8.50;99.90;;;;;;4932736;28;20524;-92
2021/12/17 15:13:05;;;;;;;5.90;3.63;;;8.50;99.90;;;;;;4938519;28;20109;-90
2021/12/17 15:15:35;;;;;;;6.63;3.78;;;8.50;99.90;;;;;;4951055;28;20075;-91
2021/12/17 15:18:03;;;;;;;6.20;4.05;;;8.50;99.90;;;;;;4963010;28;20042;-91
2021/12/17 15:20:31;;;;;;;5.30;3.72;;;8.50;99.90;;;;;;4922564;28;20055;-92
2021/12/17 15:22:59;;;;;;;6.55;4.13;;;8.50;99.90;;;;;;4917261;28;20086;-91
2021/12/17 15:25:29;;;;;;;7.22;4.25;;;8.50;99.90;;;;;;4916541;28;20035;-92
2021/12/17 15:27:55;;;;;;;8.90;6.10;;;8.50;99.90;;;;;;4919952;28;20078;-92
2021/12/17 15:30:27;;;;;;;9.00;5.40;;;8.50;99.90;;;;;;4943683;28;20117;-91
2021/12/17 15:32:53;;;;;;;8.80;5.35;;;8.40;99.90;;;;;;4941616;28;20043;-92
2021/12/17 15:35:23;;;;;;;9.90;5.25;;;8.40;99.90;;;;;;4920392;28;20386;-90
2021/12/17 15:37:49;;;;;;;8.35;4.80;;;8.40;99.90;;;;;;4922659;28;20420;-91
2021/12/17 15:40:15;;;;;;;8.40;5.63;;;8.40;99.90;;;;;;4940598;28;20039;-92
2021/12/17 15:42:41;;;;;;;10.30;6.03;;;8.40;99.90;;;;;;4934222;28;20050;-91
2021/12/17 15:45:08;;;;;;;9.13;6.10;;;8.40;99.90;;;;;;4929257;28;20135;-91
2021/12/17 15:47:34;;;;;;;11.23;6.72;;;8.40;99.90;;;;;;4922596;28;20126;-90
2021/12/17 15:50:00;;;;;;;11.02;6.68;;;8.40;99.90;;;;;;4909075;28;20540;-91
2021/12/17 15:52:27;;;;;;;10.77;6.53;;;8.40;99.90;;;;;;4919921;29;20073;-91
2021/12/17 15:54:53;;;;;;;9.82;6.47;;;8.50;99.90;;;;;;4938250;28;20070;-90
2021/12/17 15:57:19;;;;;;;13.15;7.32;;;8.40;99.90;;;;;;4937382;28;20093;-90
2021/12/17 15:59:48;;;;;;;13.50;8.63;;;8.40;99.90;;;;;;4935209;28;20723;-93
2021/12/17 16:02:17;;;;;;;10.35;6.75;;;8.40;99.90;;;;;;4931234;28;20035;-91
2021/12/17 16:04:45;;;;;;;11.55;7.60;;;8.40;99.90;;;;;;4928851;28;20046;-91
2021/12/17 16:07:12;;;;;;;16.33;9.80;;;8.40;99.90;;;;;;4905646;28;20079;-91